createdAt,value
2022-12-19T00:00:37.879Z,102.20
2022-12-19T00:03:06.168Z,98.63
2022-12-19T00:05:38.040Z,100.15
2022-12-19T00:08:17.093Z,96.57
2022-12-19T00:10:46.003Z,97.13
2022-12-19T00:13:18.034Z,134.77
2022-12-19T00:15:46.391Z,130.05
2022-12-19T00:18:14.817Z,101.82
2022-12-19T00:20:42.912Z,87.97
2022-12-19T00:23:11.133Z,94.05
2022-12-19T00:25:40.088Z,96.87
2022-12-19T00:28:11.042Z,77.15
2022-12-19T00:30:40.505Z,65.82
2022-12-19T00:33:08.699Z,68.90
2022-12-19T00:35:36.806Z,71.37
2022-12-19T00:38:05.151Z,77.27
2022-12-19T00:40:33.266Z,64.30
2022-12-19T00:43:01.427Z,59.60
2022-12-19T00:45:29.653Z,70.57
2022-12-19T00:47:59.919Z,61.20
2022-12-19T00:50:27.991Z,61.07
2022-12-19T00:52:59.123Z,80.70
2022-12-19T00:55:27.350Z,72.00
2022-12-19T00:57:55.595Z,71.63
2022-12-19T01:00:27.946Z,73.70
2022-12-19T01:02:59.829Z,63.90
2022-12-19T01:05:30.988Z,70.27
2022-12-19T01:07:59.531Z,66.80
2022-12-19T01:10:30.655Z,73.93
2022-12-19T01:12:57.841Z,72.80
2022-12-19T01:15:25.974Z,64.97
2022-12-19T01:17:54.160Z,65.05
2022-12-19T01:20:28.923Z,55.63
2022-12-19T01:23:00.098Z,62.95
2022-12-19T01:25:28.983Z,65.10
2022-12-19T01:27:57.933Z,57.53
2022-12-19T01:30:26.813Z,57.23
2022-12-19T01:32:58.351Z,54.37
2022-12-19T01:35:30.134Z,54.17
2022-12-19T01:38:08.146Z,51.40
2022-12-19T01:40:37.406Z,66.57
2022-12-19T01:43:06.543Z,67.13
2022-12-19T01:45:37.515Z,77.10
2022-12-19T01:48:18.264Z,72.25
2022-12-19T01:51:01.383Z,82.30
2022-12-19T01:53:36.280Z,110.53
2022-12-19T01:56:18.666Z,99.57
2022-12-19T01:58:48.764Z,96.50
2022-12-19T02:01:19.585Z,89.07
2022-12-19T02:03:49.405Z,100.57
2022-12-19T02:06:20.720Z,98.50
2022-12-19T02:08:51.645Z,121.13
2022-12-19T02:11:20.799Z,80.20
2022-12-19T02:13:49.524Z,57.08
2022-12-19T02:16:31.083Z,51.53
2022-12-19T02:19:16.436Z,54.07
2022-12-19T02:21:57.507Z,71.43
2022-12-19T02:25:06.584Z,82.90
2022-12-19T02:28:04.975Z,87.20
2022-12-19T02:30:56.887Z,84.47
2022-12-19T02:33:36.856Z,75.63
2022-12-19T02:36:12.151Z,103.73
2022-12-19T02:38:49.359Z,103.68
2022-12-19T02:41:22.759Z,85.13
2022-12-19T02:43:58.844Z,107.83
2022-12-19T02:46:31.090Z,88.63
2022-12-19T02:48:59.918Z,94.87
2022-12-19T02:51:28.228Z,90.93
2022-12-19T02:53:56.643Z,84.07
2022-12-19T02:56:40.163Z,91.77
2022-12-19T02:59:37.012Z,76.80
2022-12-19T03:02:16.541Z,67.43
2022-12-19T03:04:52.546Z,88.27
2022-12-19T03:07:30.035Z,76.90
2022-12-19T03:10:09.458Z,69.10
2022-12-19T03:12:46.594Z,83.23
2022-12-19T03:15:15.509Z,90.70
2022-12-19T03:17:45.339Z,99.90
2022-12-19T03:20:25.340Z,88.33
2022-12-19T03:22:53.692Z,78.50
2022-12-19T03:25:23.396Z,69.13
2022-12-19T03:27:52.987Z,66.53
2022-12-19T03:30:21.364Z,70.90
2022-12-19T03:32:51.309Z,73.70
2022-12-19T03:35:22.042Z,109.23
2022-12-19T03:37:53.275Z,111.20
2022-12-19T03:40:25.306Z,104.53
2022-12-19T03:43:09.710Z,92.40
2022-12-19T03:45:48.959Z,101.73
2022-12-19T03:48:23.614Z,102.83
2022-12-19T03:51:02.124Z,107.87
2022-12-19T03:53:41.778Z,90.77
2022-12-19T03:56:16.775Z,106.00
2022-12-19T03:58:49.338Z,106.53
2022-12-19T04:01:19.384Z,109.43
2022-12-19T04:03:51.032Z,94.67
2022-12-19T04:06:19.685Z,88.63
2022-12-19T04:08:48.514Z,85.53
2022-12-19T04:11:19.980Z,81.07
2022-12-19T04:13:53.276Z,71.13
2022-12-19T04:16:27.590Z,68.40
2022-12-19T04:19:04.474Z,62.13
2022-12-19T04:21:36.281Z,58.70
2022-12-19T04:24:09.945Z,52.37
2022-12-19T04:26:42.780Z,50.70
2022-12-19T04:29:14.545Z,52.70
2022-12-19T04:31:43.577Z,42.03
2022-12-19T04:34:13.379Z,48.53
2022-12-19T04:36:41.514Z,43.10
2022-12-19T04:39:09.843Z,39.27
2022-12-19T04:41:38.291Z,38.83
2022-12-19T04:44:06.668Z,37.90
2022-12-19T04:46:34.950Z,39.20
2022-12-19T04:49:03.095Z,39.37
2022-12-19T04:51:32.777Z,43.90
2022-12-19T04:54:00.924Z,38.03
2022-12-19T04:56:29.026Z,46.30
2022-12-19T04:58:58.828Z,45.20
2022-12-19T05:01:27.524Z,51.97
2022-12-19T05:04:01.332Z,42.33
2022-12-19T05:06:33.914Z,50.67
2022-12-19T05:09:02.212Z,54.03
2022-12-19T05:11:30.435Z,40.03
2022-12-19T05:14:00.165Z,44.30
2022-12-19T05:16:28.333Z,35.30
2022-12-19T05:18:56.851Z,36.00
2022-12-19T05:21:25.569Z,36.30
2022-12-19T05:23:55.848Z,38.27
2022-12-19T05:26:23.994Z,33.53
2022-12-19T05:28:52.254Z,30.40
2022-12-19T05:31:21.965Z,35.10
2022-12-19T05:33:50.473Z,39.60
2022-12-19T05:36:20.217Z,35.00
2022-12-19T05:38:48.483Z,41.13
2022-12-19T05:41:19.731Z,38.60
2022-12-19T05:43:51.479Z,34.60
2022-12-19T05:46:20.414Z,35.73
2022-12-19T05:48:48.945Z,33.20
2022-12-19T05:51:17.328Z,27.73
2022-12-19T05:53:45.514Z,36.20
2022-12-19T05:56:16.170Z,48.27
2022-12-19T05:58:46.640Z,42.33
2022-12-19T06:01:16.391Z,31.33
2022-12-19T06:03:45.308Z,27.23
2022-12-19T06:06:15.695Z,27.97
2022-12-19T06:08:44.227Z,27.37
2022-12-19T06:11:14.508Z,26.10
2022-12-19T06:13:43.303Z,27.10
2022-12-19T06:16:14.921Z,33.33
2022-12-19T06:18:45.576Z,30.93
2022-12-19T06:21:15.802Z,31.17
2022-12-19T06:23:45.331Z,25.40
2022-12-19T06:26:19.459Z,30.77
2022-12-19T06:28:48.924Z,24.20
2022-12-19T06:31:21.854Z,29.93
2022-12-19T06:33:50.864Z,27.37
2022-12-19T06:36:22.485Z,26.30
2022-12-19T06:38:51.588Z,24.17
2022-12-19T06:41:37.704Z,30.10
2022-12-19T06:44:07.926Z,32.03
2022-12-19T06:46:39.113Z,30.47
2022-12-19T06:49:07.567Z,35.83
2022-12-19T06:51:35.995Z,30.10
2022-12-19T06:54:05.248Z,28.77
2022-12-19T06:56:36.719Z,28.97
2022-12-19T06:59:05.263Z,24.93
2022-12-19T07:01:47.091Z,27.80
2022-12-19T07:04:18.895Z,24.67
2022-12-19T07:06:49.255Z,29.90
2022-12-19T07:09:18.322Z,28.90
2022-12-19T07:11:46.497Z,35.80
2022-12-19T07:14:14.741Z,30.73
2022-12-19T07:16:44.550Z,34.23
2022-12-19T07:19:13.545Z,24.13
2022-12-19T07:21:42.663Z,26.83
2022-12-19T07:24:13.387Z,18.47
2022-12-19T07:26:42.444Z,19.80
2022-12-19T07:29:11.948Z,24.03
2022-12-19T07:31:40.280Z,25.43
2022-12-19T07:34:10.138Z,27.40
2022-12-19T07:36:38.361Z,24.20
2022-12-19T07:39:06.700Z,28.87
2022-12-19T07:41:38.339Z,27.10
2022-12-19T07:44:07.567Z,28.00
2022-12-19T07:46:36.196Z,30.60
2022-12-19T07:49:04.633Z,28.10
2022-12-19T07:51:34.728Z,25.80
2022-12-19T07:54:05.532Z,28.40
2022-12-19T07:56:33.808Z,30.37
2022-12-19T07:59:02.293Z,33.47
2022-12-19T08:01:30.785Z,30.70
2022-12-19T08:03:59.128Z,51.40
2022-12-19T08:06:28.000Z,42.43
2022-12-19T08:08:58.296Z,43.97
2022-12-19T08:11:29.578Z,43.20
2022-12-19T08:13:58.580Z,38.30
2022-12-19T08:16:28.341Z,41.43
2022-12-19T08:18:56.804Z,37.10
2022-12-19T08:21:25.387Z,32.17
2022-12-19T08:23:53.583Z,38.70
2022-12-19T08:26:25.930Z,37.77
2022-12-19T08:28:55.446Z,33.03
2022-12-19T08:31:25.514Z,34.30
2022-12-19T08:33:55.005Z,39.53
2022-12-19T08:36:23.845Z,35.93
2022-12-19T08:38:52.735Z,32.73
2022-12-19T08:41:21.728Z,24.03
2022-12-19T08:43:52.883Z,23.23
2022-12-19T08:46:22.071Z,24.43
2022-12-19T08:48:50.938Z,22.60
2022-12-19T08:51:20.153Z,21.53
2022-12-19T08:53:48.479Z,20.70
2022-12-19T08:56:19.135Z,20.67
2022-12-19T08:58:47.868Z,21.13
2022-12-19T09:01:20.018Z,21.73
2022-12-19T09:04:58.670Z,22.23
2022-12-19T09:06:37.416Z,18.77
2022-12-19T09:09:07.362Z,21.00
2022-12-19T09:11:36.183Z,24.67
2022-12-19T09:14:14.829Z,23.33
2022-12-19T09:16:50.404Z,22.10
2022-12-19T09:19:18.818Z,23.80
2022-12-19T09:21:47.070Z,37.67
2022-12-19T09:24:15.330Z,29.73
2022-12-19T09:26:44.577Z,25.40
2022-12-19T09:29:20.940Z,28.17
2022-12-19T09:31:56.131Z,20.80
2022-12-19T09:34:36.635Z,27.60
2022-12-19T09:37:06.160Z,25.40
2022-12-19T09:39:35.404Z,31.60
2022-12-19T09:42:21.861Z,23.63
2022-12-19T09:45:05.882Z,25.53
2022-12-19T09:47:43.179Z,27.30
2022-12-19T09:50:27.126Z,29.83
2022-12-19T09:53:01.564Z,26.50
2022-12-19T09:55:34.251Z,23.63
2022-12-19T09:58:09.185Z,28.20
2022-12-19T10:00:42.071Z,26.27
2022-12-19T10:03:19.315Z,23.97
2022-12-19T10:07:09.439Z,24.03
2022-12-19T10:08:55.831Z,26.87
2022-12-19T10:12:44.875Z,23.57
2022-12-19T10:14:58.740Z,21.20
2022-12-19T10:17:35.718Z,27.03
2022-12-19T10:20:17.189Z,21.20
2022-12-19T10:23:01.304Z,21.43
2022-12-19T10:25:56.493Z,21.90
2022-12-19T10:28:47.795Z,21.57
2022-12-19T10:31:22.258Z,25.70
2022-12-19T10:33:57.162Z,22.10
2022-12-19T10:36:55.900Z,24.30
2022-12-19T10:39:25.207Z,32.80
2022-12-19T10:42:00.444Z,33.87
2022-12-19T10:44:30.965Z,32.20
2022-12-19T10:46:59.359Z,35.17
2022-12-19T10:49:29.763Z,36.00
2022-12-19T10:52:04.758Z,39.33
2022-12-19T10:54:41.038Z,35.57
2022-12-19T10:57:26.187Z,37.90
2022-12-19T10:59:59.491Z,37.30
2022-12-19T11:02:36.981Z,33.00
2022-12-19T11:05:20.804Z,35.00
2022-12-19T11:08:01.223Z,32.97
2022-12-19T11:12:36.469Z,35.87
2022-12-19T11:19:13.259Z,29.70
2022-12-19T11:20:55.469Z,24.10
2022-12-19T11:29:37.562Z,20.90
2022-12-19T11:29:41.906Z,26.20
2022-12-19T11:30:42.985Z,21.20
2022-12-19T11:30:45.318Z,26.23
2022-12-19T11:34:06.256Z,22.00
2022-12-19T11:36:40.380Z,18.67
2022-12-19T11:39:16.583Z,21.70
2022-12-19T11:41:51.122Z,23.90
2022-12-19T11:44:28.484Z,23.67
2022-12-19T11:47:04.757Z,25.17
2022-12-19T11:49:40.398Z,23.23
2022-12-19T11:52:54.066Z,22.77
2022-12-19T11:55:16.751Z,26.80
2022-12-19T11:57:47.167Z,23.10
2022-12-19T12:00:20.461Z,20.67
2022-12-19T12:03:22.419Z,38.00
2022-12-19T12:05:54.683Z,34.27
2022-12-19T12:09:52.619Z,29.00
2022-12-19T12:19:39.141Z,34.47
2022-12-19T12:25:16.094Z,36.90
2022-12-19T12:31:10.766Z,22.47
2022-12-19T12:31:31.134Z,25.17
2022-12-19T12:31:45.833Z,21.23
2022-12-19T12:31:49.207Z,25.00
2022-12-19T12:35:14.335Z,23.90
2022-12-19T12:35:56.310Z,20.80
2022-12-19T12:38:34.365Z,22.60
2022-12-19T12:41:12.116Z,19.60
2022-12-19T12:43:53.651Z,23.13
2022-12-19T12:46:25.419Z,28.60
2022-12-19T12:49:01.347Z,25.93
2022-12-19T12:51:30.193Z,37.63
2022-12-19T12:54:05.205Z,40.53
2022-12-19T12:56:34.356Z,45.20
2022-12-19T12:59:21.140Z,42.87
2022-12-19T13:01:58.207Z,44.00
2022-12-19T13:04:32.554Z,45.30
2022-12-19T13:07:27.182Z,37.60
2022-12-19T13:10:08.412Z,34.13
2022-12-19T13:13:01.745Z,29.30
2022-12-19T13:15:39.279Z,33.40
2022-12-19T13:18:34.019Z,34.83
2022-12-19T13:21:07.107Z,37.27
2022-12-19T13:23:52.192Z,42.43
2022-12-19T13:26:45.917Z,45.63
2022-12-19T13:29:36.368Z,52.20
2022-12-19T13:32:13.217Z,46.17
2022-12-19T13:34:45.596Z,49.37
2022-12-19T13:39:49.009Z,52.03
2022-12-19T13:40:34.125Z,46.77
2022-12-19T13:43:34.570Z,46.40
2022-12-19T13:46:05.492Z,44.03
2022-12-19T13:48:38.655Z,39.67
2022-12-19T13:51:09.028Z,46.53
2022-12-19T13:53:39.494Z,92.77
2022-12-19T13:56:14.223Z,84.93
2022-12-19T13:58:48.449Z,58.13
2022-12-19T14:01:21.523Z,68.73
2022-12-19T14:03:51.345Z,56.40
2022-12-19T14:06:22.854Z,45.63
2022-12-19T14:09:46.258Z,41.93
2022-12-19T14:13:14.852Z,48.37
2022-12-19T14:15:06.310Z,34.77
2022-12-19T14:17:39.782Z,42.37
2022-12-19T14:20:54.317Z,27.40
2022-12-19T14:23:09.028Z,21.13
2022-12-19T14:28:14.643Z,23.53
2022-12-19T14:28:54.700Z,23.03
2022-12-19T14:31:25.674Z,22.47
2022-12-19T14:36:50.341Z,23.97
2022-12-19T14:39:29.001Z,23.10
2022-12-19T14:42:31.570Z,33.70
2022-12-19T14:52:08.648Z,37.23
2022-12-19T14:54:09.466Z,38.10
2022-12-19T14:54:23.812Z,42.10
2022-12-19T14:57:25.601Z,38.17
2022-12-19T15:01:07.745Z,48.10
2022-12-19T15:03:24.632Z,47.30
2022-12-19T15:05:54.173Z,44.40
2022-12-19T15:09:50.744Z,45.30
2022-12-19T15:12:04.430Z,36.87
2022-12-19T15:14:51.089Z,50.83
2022-12-19T15:17:27.299Z,39.97
2022-12-19T15:19:56.483Z,40.17
2022-12-19T15:22:24.947Z,30.63
2022-12-19T15:24:53.123Z,22.97
2022-12-19T15:27:22.640Z,23.30
2022-12-19T15:29:53.084Z,18.63
2022-12-19T15:32:21.558Z,17.20
2022-12-19T15:34:51.725Z,16.27
2022-12-19T15:37:20.009Z,16.20
2022-12-19T15:39:48.382Z,17.70
2022-12-19T15:42:21.332Z,26.20
2022-12-19T15:44:52.201Z,27.10
2022-12-19T15:47:26.928Z,22.70
2022-12-19T15:49:55.128Z,25.30
2022-12-19T15:52:25.482Z,26.00
2022-12-19T15:54:55.452Z,27.70
2022-12-19T15:57:30.253Z,21.40
2022-12-19T16:00:07.684Z,15.87
2022-12-19T16:03:21.227Z,21.23
2022-12-19T16:05:26.085Z,20.07
2022-12-19T16:07:54.458Z,15.50
2022-12-19T16:10:22.920Z,38.43
2022-12-19T16:12:55.414Z,44.80
2022-12-19T16:15:27.949Z,47.00
2022-12-19T16:17:57.177Z,30.10
2022-12-19T16:20:27.929Z,18.00
2022-12-19T16:22:56.363Z,16.43
2022-12-19T16:25:29.485Z,21.33
2022-12-19T16:27:59.495Z,27.00
2022-12-19T16:30:32.103Z,24.90
2022-12-19T16:33:00.999Z,22.43
2022-12-19T16:38:19.052Z,28.60
2022-12-19T16:40:48.146Z,32.50
2022-12-19T16:43:19.675Z,37.80
2022-12-19T16:45:49.599Z,27.43
2022-12-19T16:48:20.641Z,29.33
2022-12-19T16:50:49.188Z,24.80
2022-12-19T16:53:17.840Z,26.13
2022-12-19T16:55:48.646Z,22.17
2022-12-19T16:58:20.721Z,22.80
2022-12-19T17:00:52.095Z,21.30
2022-12-19T17:03:29.928Z,17.60
2022-12-19T17:05:58.161Z,17.47
2022-12-19T17:08:26.389Z,17.07
2022-12-19T17:10:55.512Z,20.33
2022-12-19T17:13:24.030Z,34.30
2022-12-19T17:15:57.036Z,25.93
2022-12-19T17:18:30.495Z,22.60
2022-12-19T17:20:58.757Z,26.00
2022-12-19T17:23:29.132Z,25.73
2022-12-19T17:25:59.382Z,30.97
2022-12-19T17:28:28.078Z,38.50
2022-12-19T17:31:00.248Z,38.50
2022-12-19T17:33:34.437Z,35.77
2022-12-19T17:36:03.025Z,38.47
2022-12-19T17:38:31.198Z,38.47
2022-12-19T17:40:59.854Z,35.07
2022-12-19T17:43:28.051Z,35.87
2022-12-19T17:45:58.397Z,43.13
2022-12-19T17:48:28.941Z,35.37
2022-12-19T17:50:57.375Z,35.33
2022-12-19T17:53:25.672Z,32.80
2022-12-19T17:55:53.969Z,36.67
2022-12-19T17:58:22.716Z,41.80
2022-12-19T18:00:52.323Z,43.87
2022-12-19T18:03:24.619Z,38.27
2022-12-19T18:05:54.455Z,43.67
2022-12-19T18:08:28.577Z,41.30
2022-12-19T18:10:58.066Z,37.07
2022-12-19T18:13:27.708Z,36.73
2022-12-19T18:15:59.033Z,31.90
2022-12-19T18:18:31.179Z,31.63
2022-12-19T18:21:00.905Z,28.87
2022-12-19T18:23:30.510Z,30.27
2022-12-19T18:26:01.993Z,32.30
2022-12-19T18:28:31.078Z,27.93
2022-12-19T18:31:02.268Z,21.10
2022-12-19T18:33:37.667Z,28.60
2022-12-19T18:36:07.589Z,24.87
2022-12-19T18:38:35.705Z,19.07
2022-12-19T18:41:03.913Z,20.30
2022-12-19T18:43:32.748Z,21.47
2022-12-19T18:46:00.954Z,20.93
2022-12-19T18:48:32.839Z,19.60
2022-12-19T18:51:02.656Z,26.37
2022-12-19T18:53:35.714Z,30.03
2022-12-19T18:56:06.163Z,37.03
2022-12-19T18:58:35.276Z,35.37
2022-12-19T19:01:05.998Z,52.90
2022-12-19T19:03:39.308Z,25.43
2022-12-19T19:06:14.474Z,25.17
2022-12-19T19:08:42.640Z,20.47
2022-12-19T19:11:36.510Z,18.40
2022-12-19T19:14:04.901Z,21.70
2022-12-19T19:16:33.262Z,19.80
2022-12-19T19:19:03.005Z,24.10
2022-12-19T19:21:34.647Z,26.03
2022-12-19T19:24:07.402Z,24.73
2022-12-19T19:26:35.795Z,20.40
2022-12-19T19:29:04.543Z,30.27
2022-12-19T19:31:37.569Z,35.87
2022-12-19T19:34:13.417Z,33.00
2022-12-19T19:36:46.649Z,42.77
2022-12-19T19:39:15.082Z,45.50
2022-12-19T19:41:43.442Z,48.20
2022-12-19T19:44:11.894Z,54.13
2022-12-19T19:46:40.084Z,45.80
2022-12-19T19:49:09.730Z,47.03
2022-12-19T19:51:38.056Z,42.37
2022-12-19T19:54:06.656Z,51.03
2022-12-19T19:56:34.941Z,51.77
2022-12-19T19:59:03.084Z,54.80
2022-12-19T20:01:31.660Z,46.03
2022-12-19T20:04:00.087Z,40.70
2022-12-19T20:06:29.850Z,42.43
2022-12-19T20:08:57.964Z,35.13
2022-12-19T20:11:26.235Z,39.30
2022-12-19T20:13:54.378Z,33.63
2022-12-19T20:16:22.649Z,48.83
2022-12-19T20:18:52.163Z,47.87
2022-12-19T20:21:21.489Z,47.07
2022-12-19T20:23:51.363Z,36.30
2022-12-19T20:26:19.793Z,31.53
2022-12-19T20:28:50.108Z,36.73
2022-12-19T20:31:19.592Z,36.53
2022-12-19T20:33:48.592Z,37.23
2022-12-19T20:36:17.960Z,42.27
2022-12-19T20:38:46.948Z,42.93
2022-12-19T20:41:16.619Z,43.00
2022-12-19T20:43:44.824Z,47.60
2022-12-19T20:46:15.052Z,43.30
2022-12-19T20:48:43.663Z,37.93
2022-12-19T20:51:13.795Z,52.30
2022-12-19T20:53:42.831Z,38.47
2022-12-19T20:56:14.399Z,33.27
2022-12-19T20:58:44.466Z,32.80
2022-12-19T21:01:14.899Z,37.50
2022-12-19T21:03:44.203Z,33.07
2022-12-19T21:06:13.763Z,26.80
2022-12-19T21:08:42.773Z,28.03
2022-12-19T21:11:11.481Z,24.43
2022-12-19T21:13:41.165Z,26.70
2022-12-19T21:16:13.557Z,26.07
2022-12-19T21:18:42.954Z,23.20
2022-12-19T21:21:14.874Z,24.70
2022-12-19T21:23:43.863Z,40.20
2022-12-19T21:26:12.741Z,43.87
2022-12-19T21:28:41.733Z,40.93
2022-12-19T21:31:16.207Z,38.20
2022-12-19T21:33:44.750Z,22.30
2022-12-19T21:36:15.816Z,21.63
2022-12-19T21:38:44.064Z,24.13
2022-12-19T21:41:18.598Z,18.97
2022-12-19T21:43:48.945Z,19.80
2022-12-19T21:46:19.468Z,21.63
2022-12-19T21:48:50.090Z,20.60
2022-12-19T21:51:19.665Z,18.37
2022-12-19T21:53:48.508Z,18.37
2022-12-19T21:56:23.940Z,16.47
2022-12-19T21:58:52.740Z,16.33
2022-12-19T22:01:22.998Z,16.77
2022-12-19T22:03:52.116Z,31.87
2022-12-19T22:06:27.757Z,29.57
2022-12-19T22:08:57.212Z,32.80
2022-12-19T22:11:25.910Z,35.40
2022-12-19T22:13:54.339Z,40.30
2022-12-19T22:16:24.165Z,40.17
2022-12-19T22:18:53.136Z,35.27
2022-12-19T22:21:22.296Z,38.17
2022-12-19T22:23:51.278Z,43.83
2022-12-19T22:26:21.636Z,43.40
2022-12-19T22:28:51.345Z,39.80
2022-12-19T22:31:21.050Z,36.13
2022-12-19T22:33:52.262Z,31.97
2022-12-19T22:36:27.654Z,41.60
2022-12-19T22:38:57.265Z,51.70
2022-12-19T22:41:25.665Z,45.77
2022-12-19T22:43:54.665Z,49.03
2022-12-19T22:46:26.348Z,52.00
2022-12-19T22:48:58.168Z,52.03
2022-12-19T22:51:28.328Z,55.70
2022-12-19T22:53:57.243Z,51.07
2022-12-19T22:56:27.443Z,51.70
2022-12-19T22:58:57.539Z,55.43
2022-12-19T23:01:27.466Z,53.83
2022-12-19T23:03:59.201Z,49.47
2022-12-19T23:06:29.837Z,48.73
2022-12-19T23:08:58.212Z,52.33
2022-12-19T23:11:29.456Z,42.53
2022-12-19T23:13:57.618Z,44.80
2022-12-19T23:16:25.957Z,42.20
2022-12-19T23:18:54.564Z,39.03
2022-12-19T23:21:25.574Z,39.67
2022-12-19T23:23:55.932Z,34.17
2022-12-19T23:26:25.853Z,37.73
2022-12-19T23:28:56.640Z,37.67
2022-12-19T23:31:25.468Z,37.70
2022-12-19T23:33:54.485Z,41.70
2022-12-19T23:37:00.472Z,37.37
2022-12-19T23:39:14.608Z,33.90
2022-12-19T23:41:43.048Z,38.37
2022-12-19T23:44:11.873Z,35.90
2022-12-19T23:46:40.192Z,27.83
2022-12-19T23:49:08.748Z,32.47
2022-12-19T23:51:38.278Z,25.67
2022-12-19T23:54:08.724Z,18.40
2022-12-19T23:56:36.956Z,18.47
2022-12-19T23:59:05.203Z,24.07
